createdAt,value
2022-12-11T00:00:08.217Z,-2.68
2022-12-11T00:02:55.083Z,-2.77
2022-12-11T00:05:41.873Z,-2.65
2022-12-11T00:08:28.709Z,-2.64
2022-12-11T00:11:15.498Z,-2.64
2022-12-11T00:14:02.936Z,-3.12
2022-12-11T00:16:49.771Z,-3.36
2022-12-11T00:19:36.682Z,-2.62
2022-12-11T00:22:23.525Z,-2.86
2022-12-11T00:25:10.539Z,-2.90
2022-12-11T00:27:57.951Z,-2.57
2022-12-11T00:30:44.706Z,-2.68
2022-12-11T00:33:33.273Z,-2.55
2022-12-11T00:36:20.131Z,-2.86
2022-12-11T00:39:07.687Z,-2.54
2022-12-11T00:41:54.474Z,-2.59
2022-12-11T00:44:42.546Z,-2.51
2022-12-11T00:47:29.321Z,-2.48
2022-12-11T00:50:16.065Z,-2.67
2022-12-11T00:53:02.820Z,-2.44
2022-12-11T00:55:49.672Z,-2.41
2022-12-11T00:58:36.845Z,-2.38
2022-12-11T01:01:33.117Z,-2.38
2022-12-11T01:04:19.939Z,-2.53
2022-12-11T01:07:06.732Z,-2.40
2022-12-11T01:09:51.933Z,-2.27
2022-12-11T01:12:38.738Z,-2.98
2022-12-11T01:15:26.042Z,-2.40
2022-12-11T01:18:13.611Z,-2.20
2022-12-11T01:21:01.841Z,-2.54
2022-12-11T01:23:48.630Z,-2.50
2022-12-11T01:26:35.643Z,-2.24
2022-12-11T01:29:22.433Z,-2.17
2022-12-11T01:32:09.175Z,-2.07
2022-12-11T01:34:55.975Z,-2.14
2022-12-11T01:37:42.826Z,-2.21
2022-12-11T01:40:31.574Z,-2.12
2022-12-11T01:43:18.425Z,-1.98
2022-12-11T01:46:08.074Z,-1.95
2022-12-11T01:48:54.920Z,-1.94
2022-12-11T01:51:43.532Z,-1.91
2022-12-11T01:54:34.890Z,-1.89
2022-12-11T01:57:25.926Z,-2.21
2022-12-11T02:00:12.842Z,-1.93
2022-12-11T02:03:04.437Z,-2.15
2022-12-11T02:05:51.205Z,-1.79
2022-12-11T02:08:39.057Z,-1.88
2022-12-11T02:11:33.494Z,-2.03
2022-12-11T02:14:32.846Z,-1.73
2022-12-11T02:17:31.743Z,-1.71
2022-12-11T02:20:43.133Z,-2.01
2022-12-11T02:23:32.556Z,-1.67
2022-12-11T02:26:42.116Z,-1.63
2022-12-11T02:29:37.045Z,-1.71
2022-12-11T02:32:34.434Z,-1.60
2022-12-11T02:35:46.754Z,-1.57
2022-12-11T02:38:38.403Z,-1.55
2022-12-11T02:41:27.354Z,-1.51
2022-12-11T02:44:17.129Z,-1.49
2022-12-11T02:47:04.781Z,-1.47
2022-12-11T02:49:54.055Z,-1.47
2022-12-11T02:52:44.227Z,-1.41
2022-12-11T02:55:34.769Z,-1.40
2022-12-11T02:58:32.433Z,-1.61
2022-12-11T03:01:19.555Z,-1.34
2022-12-11T03:04:06.433Z,-1.33
2022-12-11T03:06:57.970Z,-1.39
2022-12-11T03:09:44.831Z,-1.45
2022-12-11T03:12:35.682Z,-1.25
2022-12-11T03:15:27.294Z,-1.50
2022-12-11T03:18:25.031Z,-1.22
2022-12-11T03:21:27.913Z,-1.29
2022-12-11T03:24:25.242Z,-1.19
2022-12-11T03:27:19.197Z,-1.17
2022-12-11T03:30:15.766Z,-1.50
2022-12-11T03:33:09.827Z,-1.13
2022-12-11T03:36:02.378Z,-1.10
2022-12-11T03:39:29.591Z,-1.09
2022-12-11T03:42:17.507Z,-1.34
2022-12-11T03:45:08.192Z,-1.06
2022-12-11T03:47:56.898Z,-1.14
2022-12-11T03:50:48.262Z,-1.59
2022-12-11T03:53:35.972Z,-1.20
2022-12-11T03:56:28.643Z,-1.03
2022-12-11T03:59:15.657Z,-1.10
2022-12-11T04:02:02.949Z,-1.21
2022-12-11T04:04:49.794Z,-1.13
2022-12-11T04:07:36.657Z,-1.20
2022-12-11T04:10:24.941Z,-1.01
2022-12-11T04:13:11.735Z,-0.93
2022-12-11T04:15:59.362Z,-0.92
2022-12-11T04:18:44.674Z,-0.91
2022-12-11T04:21:29.873Z,-0.89
2022-12-11T04:24:34.979Z,-1.09
2022-12-11T04:27:21.790Z,-1.13
2022-12-11T04:30:08.577Z,-0.99
2022-12-11T04:32:55.326Z,-1.12
2022-12-11T04:35:42.739Z,-1.06
2022-12-11T04:38:29.549Z,-0.86
2022-12-11T04:41:26.491Z,-0.85
2022-12-11T04:44:13.272Z,-1.01
2022-12-11T04:47:00.066Z,-1.19
2022-12-11T04:49:46.830Z,-0.86
2022-12-11T04:52:33.627Z,-1.12
2022-12-11T04:55:20.407Z,-0.85
2022-12-11T04:58:07.197Z,-0.85
2022-12-11T05:00:54.045Z,-0.86
2022-12-11T05:03:41.182Z,-1.20
2022-12-11T05:06:29.977Z,-1.28
2022-12-11T05:09:16.772Z,-1.01
2022-12-11T05:12:03.572Z,-0.86
2022-12-11T05:14:50.353Z,-1.15
2022-12-11T05:17:37.156Z,-0.86
2022-12-11T05:20:24.174Z,-0.86
2022-12-11T05:23:10.942Z,-0.84
2022-12-11T05:25:57.690Z,-0.91
2022-12-11T05:28:46.228Z,-0.85
2022-12-11T05:31:36.017Z,-0.86
2022-12-11T05:34:22.838Z,-0.93
2022-12-11T05:37:09.741Z,-1.09
2022-12-11T05:39:57.329Z,-0.86
2022-12-11T05:42:44.161Z,-1.24
2022-12-11T05:45:31.279Z,-0.89
2022-12-11T05:48:18.044Z,-0.89
2022-12-11T05:51:04.777Z,-0.90
2022-12-11T05:53:52.108Z,-0.92
2022-12-11T05:56:41.515Z,-0.96
2022-12-11T05:59:28.513Z,-0.91
2022-12-11T06:02:15.422Z,-1.08
2022-12-11T06:05:02.303Z,-0.95
2022-12-11T06:07:49.774Z,-0.88
2022-12-11T06:10:36.692Z,-1.01
2022-12-11T06:13:23.988Z,-0.89
2022-12-11T06:16:11.034Z,-1.17
2022-12-11T06:19:00.344Z,-1.06
2022-12-11T06:21:49.850Z,-0.94
2022-12-11T06:24:36.588Z,-0.94
2022-12-11T06:27:23.372Z,-0.94
2022-12-11T06:30:10.226Z,-1.10
2022-12-11T06:32:56.990Z,-0.93
2022-12-11T06:35:43.730Z,-0.95
2022-12-11T06:38:30.498Z,-0.96
2022-12-11T06:41:18.770Z,-1.07
2022-12-11T06:44:05.548Z,-0.97
2022-12-11T06:46:52.317Z,-1.11
2022-12-11T06:49:39.104Z,-1.02
2022-12-11T06:52:26.287Z,-1.02
2022-12-11T06:55:13.683Z,-0.94
2022-12-11T06:58:00.625Z,-0.93
2022-12-11T07:00:47.741Z,-0.92
2022-12-11T07:03:34.531Z,-0.94
2022-12-11T07:06:22.661Z,-0.92
2022-12-11T07:09:09.764Z,-0.92
2022-12-11T07:11:56.739Z,-0.97
2022-12-11T07:14:43.645Z,-0.90
2022-12-11T07:17:30.448Z,-0.93
2022-12-11T07:20:17.258Z,-0.89
2022-12-11T07:23:04.548Z,-1.31
2022-12-11T07:25:51.338Z,-1.55
2022-12-11T07:28:38.080Z,-0.97
2022-12-11T07:31:29.723Z,-0.89
2022-12-11T07:34:19.255Z,-1.16
2022-12-11T07:37:06.045Z,-0.88
2022-12-11T07:39:52.788Z,-0.88
2022-12-11T07:42:44.544Z,-0.88
2022-12-11T07:45:32.948Z,-1.08
2022-12-11T07:48:19.782Z,-0.90
2022-12-11T07:51:06.525Z,-1.41
2022-12-11T07:53:53.274Z,-1.12
2022-12-11T07:56:43.789Z,-1.10
2022-12-11T07:59:31.067Z,-1.28
2022-12-11T08:02:17.978Z,-0.89
2022-12-11T08:04:44.957Z,-1.04
2022-12-11T08:07:31.886Z,-0.90
2022-12-11T08:10:18.645Z,-0.91
2022-12-11T08:12:45.425Z,-0.93
2022-12-11T08:15:32.196Z,-0.91
2022-12-11T08:18:18.921Z,-0.96
2022-12-11T08:21:05.752Z,-0.88
2022-12-11T08:23:52.537Z,-0.95
2022-12-11T08:26:45.933Z,-0.90
2022-12-11T08:29:32.702Z,-1.25
2022-12-11T08:32:19.479Z,-1.44
2022-12-11T08:35:06.219Z,-0.92
2022-12-11T08:37:54.411Z,-0.90
2022-12-11T08:40:41.178Z,-1.04
2022-12-11T08:43:27.984Z,-1.29
2022-12-11T08:46:14.790Z,-0.83
2022-12-11T08:49:03.067Z,-0.93
2022-12-11T08:51:51.788Z,-0.82
2022-12-11T08:54:38.594Z,-0.95
2022-12-11T08:57:05.468Z,-0.82
2022-12-11T08:59:32.353Z,-0.87
2022-12-11T09:02:19.193Z,-0.80
2022-12-11T09:05:05.967Z,-0.98
2022-12-11T09:07:52.856Z,-0.91
2022-12-11T09:10:39.743Z,-0.81
2022-12-11T09:13:26.529Z,-0.82
2022-12-11T09:16:13.314Z,-0.92
2022-12-11T09:19:00.651Z,-0.97
2022-12-11T09:21:50.042Z,-1.19
2022-12-11T09:24:36.829Z,-0.84
2022-12-11T09:27:24.690Z,-0.80
2022-12-11T09:30:11.447Z,-0.79
2022-12-11T09:32:58.201Z,-0.80
2022-12-11T09:35:44.984Z,-0.97
2022-12-11T09:38:31.813Z,-0.83
2022-12-11T09:41:19.082Z,-1.22
2022-12-11T09:44:33.054Z,-0.83
2022-12-11T09:47:20.645Z,-1.23
2022-12-11T09:50:11.258Z,-0.93
2022-12-11T09:53:13.802Z,-1.09
2022-12-11T09:56:29.822Z,-0.85
2022-12-11T09:59:38.575Z,-0.84
2022-12-11T10:02:44.443Z,-0.88
2022-12-11T10:06:04.013Z,-1.06
2022-12-11T10:09:15.639Z,-0.91
2022-12-11T10:12:36.778Z,-0.94
2022-12-11T10:15:44.945Z,-0.89
2022-12-11T11:23:45.462Z,-0.97
2022-12-11T11:26:56.678Z,-1.08
2022-12-11T11:29:53.346Z,-1.03
2022-12-11T11:32:45.185Z,-0.94
2022-12-11T11:35:31.895Z,-0.94
2022-12-11T11:38:22.670Z,-0.95
2022-12-11T11:41:45.429Z,-0.95
2022-12-11T11:44:38.957Z,-0.96
2022-12-11T11:47:34.795Z,-0.96
2022-12-11T11:50:38.513Z,-0.95
2022-12-11T11:53:59.178Z,-1.04
2022-12-11T11:56:51.465Z,-0.96
2022-12-11T11:59:52.314Z,-0.95
2022-12-11T12:02:40.147Z,-0.94
2022-12-11T12:05:13.482Z,-0.94
2022-12-11T12:08:10.547Z,-0.95
2022-12-11T12:11:18.611Z,-0.94
2022-12-11T12:14:51.827Z,-1.54
2022-12-11T12:17:55.413Z,-1.05
2022-12-11T12:20:54.931Z,-0.91
2022-12-11T12:24:09.565Z,-0.91
2022-12-11T12:26:59.810Z,-0.90
2022-12-11T12:30:11.563Z,-0.91
2022-12-11T12:33:33.204Z,-0.90
2022-12-11T12:36:26.418Z,-0.87
2022-12-11T12:39:20.207Z,-0.87
2022-12-11T12:42:33.080Z,-0.89
2022-12-11T12:45:30.408Z,-0.97
2022-12-11T12:48:17.234Z,-0.98
2022-12-11T12:51:08.720Z,-1.29
2022-12-11T12:53:57.222Z,-1.29
2022-12-11T12:56:45.321Z,-0.97
2022-12-11T12:59:46.847Z,-1.18
2022-12-11T13:02:36.935Z,-1.00
2022-12-11T13:05:41.021Z,-1.01
2022-12-11T13:08:28.288Z,-1.09
2022-12-11T13:11:26.533Z,-1.04
2022-12-11T13:14:27.126Z,-1.02
2022-12-11T13:17:42.751Z,-1.08
2022-12-11T13:20:39.184Z,-1.01
2022-12-11T13:23:25.897Z,-1.01
2022-12-11T13:26:24.646Z,-0.99
2022-12-11T13:29:11.413Z,-0.98
2022-12-11T13:32:00.177Z,-1.04
2022-12-11T13:34:52.186Z,-0.99
2022-12-11T13:37:41.802Z,-0.93
2022-12-11T13:40:42.421Z,-1.22
2022-12-11T13:43:38.487Z,-1.38
2022-12-11T13:46:29.460Z,-0.94
2022-12-11T13:49:28.129Z,-0.93
2022-12-11T13:52:17.842Z,-0.94
2022-12-11T13:55:10.531Z,-0.95
2022-12-11T13:58:05.682Z,-0.95
2022-12-11T14:00:52.727Z,-0.94
2022-12-11T14:03:39.728Z,-1.01
2022-12-11T14:06:31.226Z,-1.01
2022-12-11T14:09:21.114Z,-1.00
2022-12-11T14:12:08.832Z,-0.95
2022-12-11T14:15:05.572Z,-0.95
2022-12-11T14:17:54.896Z,-0.95
2022-12-11T14:20:53.798Z,-0.94
2022-12-11T14:23:46.574Z,-1.10
2022-12-11T14:26:52.136Z,-0.98
2022-12-11T14:29:47.316Z,-0.98
2022-12-11T14:32:39.115Z,-1.43
2022-12-11T14:35:35.524Z,-1.00
2022-12-11T14:38:36.851Z,-1.04
2022-12-11T14:41:40.971Z,-1.06
2022-12-11T14:44:32.501Z,-1.07
2022-12-11T14:47:37.784Z,-1.67
2022-12-11T14:50:43.505Z,-1.10
2022-12-11T14:53:35.602Z,-1.09
2022-12-11T14:56:26.365Z,-1.18
2022-12-11T14:59:20.110Z,-1.08
2022-12-11T15:02:37.013Z,-1.52
2022-12-11T15:05:35.743Z,-1.07
2022-12-11T15:08:31.879Z,-1.04
2022-12-11T15:11:21.722Z,-1.01
2022-12-11T15:14:18.091Z,-1.03
2022-12-11T15:17:07.026Z,-0.95
2022-12-11T15:19:55.041Z,-0.94
2022-12-11T15:22:43.456Z,-0.99
2022-12-11T15:25:42.703Z,-0.97
2022-12-11T15:28:47.053Z,-1.30
2022-12-11T15:31:47.014Z,-0.95
2022-12-11T15:34:43.605Z,-1.01
2022-12-11T15:37:42.413Z,-0.96
2022-12-11T15:40:29.939Z,-0.96
2022-12-11T15:43:17.918Z,-1.02
2022-12-11T15:46:04.864Z,-0.97
2022-12-11T15:48:51.687Z,-1.01
2022-12-11T15:51:42.878Z,-0.97
2022-12-11T15:54:30.473Z,-0.98
2022-12-11T15:57:17.999Z,-0.95
2022-12-11T16:00:06.427Z,-0.98
2022-12-11T16:02:53.849Z,-1.17
2022-12-11T16:05:41.505Z,-1.09
2022-12-11T16:08:33.017Z,-1.08
2022-12-11T16:11:19.819Z,-1.10
2022-12-11T16:14:06.591Z,-0.96
2022-12-11T16:16:53.937Z,-1.16
2022-12-11T16:19:40.689Z,-1.08
2022-12-11T16:22:31.334Z,-0.96
2022-12-11T16:25:18.993Z,-0.96
2022-12-11T16:28:05.769Z,-1.07
2022-12-11T16:30:55.537Z,-0.97
2022-12-11T16:33:42.364Z,-1.03
2022-12-11T16:36:39.925Z,-0.99
2022-12-11T16:39:26.678Z,-0.98
2022-12-11T16:42:13.561Z,-0.97
2022-12-11T16:45:00.421Z,-0.98
2022-12-11T16:47:49.598Z,-1.39
2022-12-11T16:50:36.625Z,-1.01
2022-12-11T16:53:23.445Z,-1.04
2022-12-11T16:56:10.441Z,-1.00
2022-12-11T16:58:57.183Z,-1.00
2022-12-11T17:01:44.119Z,-1.59
2022-12-11T17:04:30.888Z,-1.34
2022-12-11T17:07:17.668Z,-0.98
2022-12-11T17:10:04.553Z,-0.96
2022-12-11T17:12:51.497Z,-0.97
2022-12-11T17:15:38.418Z,-1.09
2022-12-11T17:18:25.301Z,-0.97
2022-12-11T17:21:12.058Z,-1.01
2022-12-11T17:23:59.641Z,-1.00
2022-12-11T17:26:46.405Z,-1.06
2022-12-11T17:29:33.801Z,-0.95
2022-12-11T17:32:20.610Z,-0.95
2022-12-11T17:35:07.433Z,-0.94
2022-12-11T17:37:54.412Z,-0.96
2022-12-11T17:40:41.220Z,-1.01
2022-12-11T17:43:28.570Z,-1.09
2022-12-11T17:46:15.333Z,-0.93
2022-12-11T17:49:02.542Z,-0.91
2022-12-11T17:51:49.445Z,-0.98
2022-12-11T17:54:36.200Z,-0.91
2022-12-11T17:57:23.049Z,-0.92
2022-12-11T18:00:09.922Z,-0.93
2022-12-11T18:02:59.165Z,-1.02
2022-12-11T18:05:46.099Z,-0.95
2022-12-11T18:08:34.315Z,-1.13
2022-12-11T18:11:29.614Z,-1.00
2022-12-11T18:14:17.567Z,-1.10
2022-12-11T18:17:04.680Z,-1.01
2022-12-11T18:19:51.600Z,-1.03
2022-12-11T18:22:38.383Z,-0.93
2022-12-11T18:25:26.087Z,-0.95
2022-12-11T18:28:13.094Z,-1.07
2022-12-11T18:31:00.023Z,-1.10
2022-12-11T18:33:47.303Z,-0.93
2022-12-11T18:36:36.786Z,-1.23
2022-12-11T18:39:19.690Z,-0.95
2022-12-11T18:41:58.262Z,-0.97
2022-12-11T18:44:30.574Z,-0.98
2022-12-11T18:47:17.338Z,-0.98
2022-12-11T18:50:07.997Z,-0.99
2022-12-11T18:52:55.290Z,-1.11
2022-12-11T18:55:42.158Z,-1.03
2022-12-11T18:58:29.170Z,-1.03
2022-12-11T19:01:16.011Z,-1.27
2022-12-11T19:04:07.828Z,-1.08
2022-12-11T19:06:57.376Z,-1.10
2022-12-11T19:09:48.046Z,-1.20
2022-12-11T19:12:35.300Z,-1.14
2022-12-11T19:15:24.077Z,-1.23
2022-12-11T19:18:11.221Z,-1.16
2022-12-11T19:21:06.770Z,-1.17
2022-12-11T19:23:55.512Z,-1.17
2022-12-11T19:26:44.182Z,-1.16
2022-12-11T19:29:39.786Z,-1.16
2022-12-11T19:32:27.517Z,-1.14
2022-12-11T19:35:16.588Z,-1.20
2022-12-11T19:38:03.501Z,-1.13
2022-12-11T19:40:50.789Z,-1.14
2022-12-11T19:43:37.566Z,-1.66
2022-12-11T19:46:27.121Z,-1.17
2022-12-11T19:49:16.097Z,-1.10
2022-12-11T19:52:03.485Z,-1.10
2022-12-11T19:54:50.274Z,-1.09
2022-12-11T19:57:37.062Z,-1.09
2022-12-11T20:00:24.714Z,-1.08
2022-12-11T20:03:11.507Z,-1.61
2022-12-11T20:05:59.086Z,-1.23
2022-12-11T20:08:46.283Z,-1.05
2022-12-11T20:11:34.297Z,-1.05
2022-12-11T20:14:21.119Z,-1.23
2022-12-11T20:17:12.576Z,-1.06
2022-12-11T20:20:01.787Z,-1.06
2022-12-11T20:22:48.551Z,-1.08
2022-12-11T20:25:35.296Z,-1.09
2022-12-11T20:28:22.056Z,-1.10
2022-12-11T20:31:16.567Z,-1.10
2022-12-11T20:34:06.533Z,-1.65
2022-12-11T20:36:53.437Z,-1.14
2022-12-11T20:39:40.464Z,-1.12
2022-12-11T20:42:29.440Z,-1.12
2022-12-11T20:45:16.272Z,-1.13
2022-12-11T20:48:03.104Z,-1.15
2022-12-11T20:50:49.957Z,-1.24
2022-12-11T20:53:36.690Z,-1.17
2022-12-11T20:56:33.204Z,-1.20
2022-12-11T20:59:20.678Z,-1.19
2022-12-11T21:02:07.639Z,-1.18
2022-12-11T21:04:57.565Z,-1.43
2022-12-11T21:07:44.443Z,-1.18
2022-12-11T21:10:33.001Z,-1.45
2022-12-11T21:13:19.754Z,-1.20
2022-12-11T21:16:06.606Z,-1.22
2022-12-11T21:18:54.080Z,-1.24
2022-12-11T21:21:40.860Z,-1.24
2022-12-11T21:24:29.316Z,-1.37
2022-12-11T21:27:18.040Z,-1.29
2022-12-11T21:30:06.067Z,-1.31
2022-12-11T21:32:52.967Z,-1.32
2022-12-11T21:35:39.799Z,-1.30
2022-12-11T21:38:26.548Z,-1.30
2022-12-11T21:41:14.019Z,-1.31
2022-12-11T21:47:08.463Z,-1.57
2022-12-11T21:49:55.637Z,-1.37
2022-12-11T21:52:42.435Z,-1.41
2022-12-11T21:55:31.755Z,-1.44
2022-12-11T21:58:18.547Z,-1.45
2022-12-11T22:01:05.597Z,-1.71
2022-12-11T22:03:52.486Z,-1.52
2022-12-11T22:06:40.229Z,-1.52
2022-12-11T22:09:26.998Z,-1.52
2022-12-11T22:12:13.799Z,-1.59
2022-12-11T22:15:00.606Z,-1.61
2022-12-11T22:17:47.365Z,-1.58
2022-12-11T22:20:34.195Z,-1.60
2022-12-11T22:23:20.971Z,-1.66
2022-12-11T22:26:08.831Z,-1.92
2022-12-11T22:28:55.622Z,-1.67
2022-12-11T22:31:45.388Z,-1.73
2022-12-11T22:34:32.142Z,-2.14
2022-12-11T22:37:19.900Z,-2.02
2022-12-11T22:40:06.673Z,-2.19
2022-12-11T22:42:53.874Z,-2.11
2022-12-11T22:45:42.554Z,-1.93
2022-12-11T22:48:30.442Z,-1.96
2022-12-11T22:51:17.305Z,-1.99
2022-12-11T22:54:04.098Z,-1.98
2022-12-11T22:56:51.044Z,-1.98
2022-12-11T22:59:37.921Z,-2.18
2022-12-11T23:02:24.745Z,-2.11
2022-12-11T23:05:12.498Z,-2.08
2022-12-11T23:08:00.011Z,-2.28
2022-12-11T23:10:47.041Z,-2.17
2022-12-11T23:13:33.823Z,-2.75
2022-12-11T23:16:20.616Z,-2.19
2022-12-11T23:19:07.389Z,-2.50
2022-12-11T23:21:54.633Z,-2.21
2022-12-11T23:24:41.957Z,-2.22
2022-12-11T23:27:30.313Z,-2.25
2022-12-11T23:30:17.942Z,-2.25
2022-12-11T23:33:04.703Z,-2.33
2022-12-11T23:35:53.295Z,-2.60
2022-12-11T23:38:40.233Z,-2.32
2022-12-11T23:41:29.432Z,-2.47
2022-12-11T23:44:16.205Z,-2.42
2022-12-11T23:47:03.005Z,-2.44
2022-12-11T23:49:49.834Z,-2.45
2022-12-11T23:52:39.237Z,-2.54
2022-12-11T23:55:26.777Z,-2.50
2022-12-11T23:58:13.827Z,-2.71
